createdAt,value
2022-12-18T00:01:24.346Z,93.06
2022-12-18T00:03:53.074Z,92.47
2022-12-18T00:06:21.268Z,92.93
2022-12-18T00:08:49.193Z,92.55
2022-12-18T00:11:20.087Z,93.14
2022-12-18T00:13:47.750Z,92.65
2022-12-18T00:16:17.818Z,91.63
2022-12-18T00:18:45.045Z,91.30
2022-12-18T00:21:13.652Z,91.34
2022-12-18T00:23:43.295Z,92.77
2022-12-18T00:26:16.694Z,93.06
2022-12-18T00:28:44.644Z,92.45
2022-12-18T00:31:13.901Z,92.41
2022-12-18T00:33:41.413Z,92.92
2022-12-18T00:36:17.056Z,92.74
2022-12-18T00:38:45.338Z,92.81
2022-12-18T00:41:13.787Z,93.15
2022-12-18T00:43:41.367Z,91.92
2022-12-18T00:46:08.743Z,92.27
2022-12-18T00:48:36.731Z,91.38
2022-12-18T00:51:03.852Z,90.44
2022-12-18T00:53:30.975Z,90.64
2022-12-18T00:55:58.075Z,91.19
2022-12-18T00:58:25.142Z,90.72
2022-12-18T01:00:52.408Z,90.33
2022-12-18T01:03:19.370Z,91.13
2022-12-18T01:05:46.383Z,91.48
2022-12-18T01:08:13.508Z,91.84
2022-12-18T01:10:43.584Z,91.86
2022-12-18T01:13:10.646Z,91.44
2022-12-18T01:15:37.700Z,90.97
2022-12-18T01:18:06.870Z,90.84
2022-12-18T01:20:34.015Z,91.65
2022-12-18T01:23:01.234Z,92.66
2022-12-18T01:25:28.292Z,92.47
2022-12-18T01:27:55.276Z,92.30
2022-12-18T01:30:22.219Z,92.29
2022-12-18T01:32:49.117Z,92.56
2022-12-18T01:35:18.841Z,91.94
2022-12-18T01:37:47.333Z,91.78
2022-12-18T01:40:14.312Z,91.46
2022-12-18T01:42:41.560Z,92.24
2022-12-18T01:45:17.549Z,92.24
2022-12-18T01:47:54.192Z,92.87
2022-12-18T01:50:23.453Z,92.75
2022-12-18T01:52:57.451Z,92.61
2022-12-18T01:55:29.019Z,91.61
2022-12-18T01:57:58.531Z,92.03
2022-12-18T02:00:25.859Z,92.18
2022-12-18T02:02:53.742Z,92.68
2022-12-18T02:05:30.887Z,93.25
2022-12-18T02:08:24.566Z,93.15
2022-12-18T02:11:19.879Z,93.32
2022-12-18T02:13:59.188Z,92.74
2022-12-18T02:16:34.922Z,92.40
2022-12-18T02:19:26.237Z,91.91
2022-12-18T02:21:56.185Z,92.31
2022-12-18T02:24:44.134Z,92.50
2022-12-18T02:27:12.850Z,92.41
2022-12-18T02:29:58.341Z,92.54
2022-12-18T02:32:32.933Z,92.08
2022-12-18T02:35:02.275Z,92.09
2022-12-18T02:37:32.451Z,92.03
2022-12-18T02:40:04.839Z,92.53
2022-12-18T02:42:33.727Z,92.24
2022-12-18T02:45:02.148Z,91.84
2022-12-18T02:47:39.257Z,92.64
2022-12-18T02:50:16.513Z,91.64
2022-12-18T02:53:05.979Z,91.44
2022-12-18T02:55:33.670Z,91.87
2022-12-18T02:58:21.984Z,92.14
2022-12-18T03:01:19.716Z,92.44
2022-12-18T03:03:58.534Z,92.64
2022-12-18T03:06:38.307Z,92.85
2022-12-18T03:09:18.733Z,92.34
2022-12-18T03:12:10.610Z,92.25
2022-12-18T03:14:39.640Z,92.43
2022-12-18T03:17:13.485Z,92.50
2022-12-18T03:19:42.453Z,92.92
2022-12-18T03:22:11.173Z,92.86
2022-12-18T03:24:47.392Z,92.99
2022-12-18T03:27:19.320Z,92.40
2022-12-18T03:29:54.388Z,91.52
2022-12-18T03:32:30.604Z,91.85
2022-12-18T03:35:03.748Z,92.09
2022-12-18T03:37:34.122Z,90.08
2022-12-18T03:40:01.360Z,89.80
2022-12-18T03:42:38.093Z,90.16
2022-12-18T03:45:34.163Z,89.33
2022-12-18T03:48:24.519Z,89.02
2022-12-18T03:50:51.259Z,89.20
2022-12-18T03:53:27.455Z,89.54
2022-12-18T03:55:56.212Z,89.30
2022-12-18T03:58:30.014Z,88.66
2022-12-18T04:01:10.151Z,88.70
2022-12-18T04:03:39.459Z,88.71
2022-12-18T04:06:08.757Z,88.07
2022-12-18T04:08:36.194Z,88.32
2022-12-18T04:11:07.013Z,87.63
2022-12-18T04:13:39.898Z,87.38
2022-12-18T04:16:12.185Z,88.40
2022-12-18T04:18:42.602Z,88.87
2022-12-18T04:21:11.220Z,88.97
2022-12-18T04:23:38.881Z,87.44
2022-12-18T04:26:07.649Z,88.19
2022-12-18T04:28:50.004Z,88.16
2022-12-18T04:31:17.057Z,88.09
2022-12-18T04:33:44.181Z,88.14
2022-12-18T04:36:13.357Z,86.68
2022-12-18T04:38:41.482Z,86.50
2022-12-18T04:41:13.816Z,86.32
2022-12-18T04:43:42.765Z,85.06
2022-12-18T04:46:10.617Z,84.43
2022-12-18T04:48:38.299Z,85.48
2022-12-18T04:51:08.522Z,86.51
2022-12-18T04:53:35.741Z,85.67
2022-12-18T04:56:08.244Z,85.30
2022-12-18T04:58:35.504Z,85.70
2022-12-18T05:01:02.998Z,85.19
2022-12-18T05:03:30.602Z,84.62
2022-12-18T05:05:57.661Z,85.26
2022-12-18T05:08:24.722Z,85.39
2022-12-18T05:11:00.214Z,85.63
2022-12-18T05:13:27.825Z,85.40
2022-12-18T05:15:55.805Z,85.43
2022-12-18T05:18:27.218Z,85.67
2022-12-18T05:20:54.840Z,86.62
2022-12-18T05:23:23.657Z,86.79
2022-12-18T05:26:01.652Z,86.71
2022-12-18T05:28:30.456Z,85.71
2022-12-18T05:30:59.853Z,85.11
2022-12-18T05:33:27.902Z,84.85
2022-12-18T05:35:59.790Z,85.33
2022-12-18T05:38:28.817Z,85.64
2022-12-18T05:40:55.784Z,85.02
2022-12-18T05:43:26.208Z,84.98
2022-12-18T05:45:54.321Z,85.04
2022-12-18T05:48:22.082Z,84.50
2022-12-18T05:50:52.687Z,84.58
2022-12-18T05:53:21.390Z,84.44
2022-12-18T05:55:48.939Z,85.03
2022-12-18T05:58:16.917Z,84.46
2022-12-18T06:00:46.898Z,83.86
2022-12-18T06:03:14.739Z,84.21
2022-12-18T06:05:44.465Z,83.74
2022-12-18T06:08:11.924Z,82.79
2022-12-18T06:10:38.929Z,82.60
2022-12-18T06:13:06.766Z,82.60
2022-12-18T06:15:34.578Z,82.45
2022-12-18T06:18:02.478Z,82.75
2022-12-18T06:20:33.386Z,83.15
2022-12-18T06:23:01.186Z,83.31
2022-12-18T06:25:28.296Z,82.87
2022-12-18T06:27:55.601Z,83.40
2022-12-18T06:30:22.864Z,83.55
2022-12-18T06:32:56.294Z,83.44
2022-12-18T06:35:24.373Z,83.52
2022-12-18T06:37:51.840Z,83.56
2022-12-18T06:40:19.541Z,83.89
2022-12-18T06:42:46.471Z,84.44
2022-12-18T06:45:16.546Z,83.90
2022-12-18T06:47:43.679Z,83.71
2022-12-18T06:50:11.025Z,83.62
2022-12-18T06:52:38.196Z,83.52
2022-12-18T06:55:06.141Z,82.84
2022-12-18T06:57:36.466Z,81.62
2022-12-18T07:00:05.450Z,81.85
2022-12-18T07:02:33.173Z,81.36
2022-12-18T07:05:00.181Z,82.13
2022-12-18T07:07:27.258Z,82.09
2022-12-18T07:09:54.300Z,79.64
2022-12-18T07:12:21.275Z,79.32
2022-12-18T07:14:48.201Z,79.08
2022-12-18T07:17:15.173Z,80.17
2022-12-18T07:19:42.213Z,80.11
2022-12-18T07:22:09.722Z,79.81
2022-12-18T07:24:37.101Z,79.45
2022-12-18T07:27:04.352Z,79.39
2022-12-18T07:29:31.932Z,79.92
2022-12-18T07:31:58.889Z,80.61
2022-12-18T07:34:25.895Z,79.59
2022-12-18T07:36:53.162Z,80.31
2022-12-18T07:39:20.141Z,80.14
2022-12-18T07:42:07.337Z,80.83
2022-12-18T07:44:34.561Z,81.18
2022-12-18T07:47:09.007Z,81.45
2022-12-18T07:49:38.938Z,81.75
2022-12-18T07:52:06.022Z,81.27
2022-12-18T07:54:32.998Z,81.02
2022-12-18T07:57:00.923Z,81.51
2022-12-18T07:59:27.858Z,81.86
2022-12-18T08:01:55.021Z,81.77
2022-12-18T08:04:22.015Z,82.11
2022-12-18T08:06:49.312Z,82.02
2022-12-18T08:09:16.323Z,82.28
2022-12-18T08:11:43.661Z,82.56
2022-12-18T08:14:10.915Z,82.79
2022-12-18T08:16:38.047Z,83.22
2022-12-18T08:19:05.065Z,82.51
2022-12-18T08:21:33.009Z,82.36
2022-12-18T08:24:01.922Z,81.53
2022-12-18T08:26:31.327Z,80.62
2022-12-18T08:29:00.610Z,80.88
2022-12-18T08:31:28.857Z,80.62
2022-12-18T08:33:56.807Z,80.89
2022-12-18T08:36:27.417Z,81.02
2022-12-18T08:38:55.020Z,80.28
2022-12-18T08:41:22.594Z,81.07
2022-12-18T08:44:09.101Z,81.24
2022-12-18T08:46:39.185Z,80.63
2022-12-18T08:49:08.107Z,80.85
2022-12-18T08:51:35.677Z,80.83
2022-12-18T08:54:03.438Z,80.12
2022-12-18T08:56:32.092Z,80.22
2022-12-18T08:59:00.431Z,79.37
2022-12-18T09:01:39.629Z,78.75
2022-12-18T09:04:07.057Z,77.01
2022-12-18T09:06:35.239Z,77.12
2022-12-18T09:09:04.436Z,76.59
2022-12-18T09:11:35.999Z,76.48
2022-12-18T09:14:03.053Z,75.90
2022-12-18T09:16:32.723Z,76.77
2022-12-18T09:19:41.797Z,74.84
2022-12-18T09:22:10.698Z,74.42
2022-12-18T09:24:37.743Z,74.12
2022-12-18T09:27:04.889Z,74.02
2022-12-18T09:29:32.057Z,74.10
2022-12-18T09:32:09.718Z,74.18
2022-12-18T09:34:37.291Z,74.74
2022-12-18T09:37:04.175Z,74.30
2022-12-18T09:39:31.122Z,73.51
2022-12-18T09:41:59.973Z,73.41
2022-12-18T09:44:32.165Z,73.62
2022-12-18T09:47:24.495Z,73.03
2022-12-18T09:49:55.857Z,73.31
2022-12-18T09:52:57.547Z,73.73
2022-12-18T09:55:41.658Z,73.27
2022-12-18T09:58:26.575Z,72.73
2022-12-18T10:00:55.413Z,73.29
2022-12-18T10:03:22.857Z,70.83
2022-12-18T10:06:08.883Z,71.39
2022-12-18T10:08:54.503Z,70.91
2022-12-18T10:11:35.929Z,71.49
2022-12-18T10:14:42.473Z,71.94
2022-12-18T10:17:34.498Z,70.72
2022-12-18T10:20:26.578Z,69.58
2022-12-18T10:23:17.931Z,70.07
2022-12-18T10:25:56.979Z,70.04
2022-12-18T10:28:24.774Z,69.32
2022-12-18T10:30:51.735Z,69.54
2022-12-18T10:33:22.696Z,70.51
2022-12-18T10:35:53.862Z,70.42
2022-12-18T10:38:23.918Z,69.96
2022-12-18T10:41:00.626Z,69.97
2022-12-18T10:43:39.812Z,70.25
2022-12-18T10:46:10.027Z,70.22
2022-12-18T10:48:53.087Z,70.18
2022-12-18T10:51:31.688Z,70.13
2022-12-18T10:54:14.493Z,70.27
2022-12-18T10:56:42.556Z,70.51
2022-12-18T10:59:14.553Z,70.10
2022-12-18T11:01:56.581Z,69.54
2022-12-18T11:04:27.248Z,68.63
2022-12-18T11:07:06.644Z,68.60
2022-12-18T11:09:37.958Z,67.51
2022-12-18T11:12:16.854Z,68.51
2022-12-18T11:14:48.268Z,67.43
2022-12-18T11:17:36.553Z,67.29
2022-12-18T11:20:10.667Z,67.96
2022-12-18T11:22:39.522Z,68.29
2022-12-18T11:25:35.621Z,68.20
2022-12-18T11:28:44.226Z,69.37
2022-12-18T11:31:23.349Z,68.63
2022-12-18T11:34:27.329Z,69.82
2022-12-18T11:36:47.808Z,69.45
2022-12-18T11:39:44.038Z,68.92
2022-12-18T11:42:36.857Z,68.92
2022-12-18T11:45:30.173Z,68.96
2022-12-18T11:48:13.862Z,68.79
2022-12-18T11:51:01.466Z,67.14
2022-12-18T11:53:31.478Z,66.56
2022-12-18T11:56:03.755Z,66.85
2022-12-18T11:58:40.338Z,67.11
2022-12-18T12:01:15.459Z,66.97
2022-12-18T12:04:16.119Z,67.61
2022-12-18T12:07:15.995Z,68.02
2022-12-18T12:10:08.931Z,67.96
2022-12-18T12:12:52.477Z,67.75
2022-12-18T12:15:38.901Z,68.70
2022-12-18T12:18:21.320Z,68.09
2022-12-18T12:21:42.175Z,68.21
2022-12-18T12:24:43.261Z,68.27
2022-12-18T12:27:28.373Z,68.21
2022-12-18T12:30:14.171Z,68.48
2022-12-18T12:33:11.514Z,68.62
2022-12-18T12:35:41.829Z,68.63
2022-12-18T12:38:15.847Z,68.94
2022-12-18T12:40:55.272Z,68.45
2022-12-18T12:43:49.391Z,68.04
2022-12-18T12:46:22.379Z,68.26
2022-12-18T12:49:08.849Z,68.48
2022-12-18T12:52:06.553Z,68.37
2022-12-18T12:54:34.907Z,68.56
2022-12-18T12:57:11.245Z,68.67
2022-12-18T12:59:52.200Z,68.91
2022-12-18T13:02:24.207Z,68.39
2022-12-18T13:05:14.771Z,69.94
2022-12-18T13:08:01.896Z,69.08
2022-12-18T13:10:38.851Z,68.15
2022-12-18T13:13:11.095Z,68.51
2022-12-18T13:15:46.261Z,68.25
2022-12-18T13:18:54.291Z,67.96
2022-12-18T13:21:28.370Z,67.71
2022-12-18T13:23:56.761Z,67.94
2022-12-18T13:26:28.764Z,67.87
2022-12-18T13:28:57.632Z,67.52
2022-12-18T13:31:24.896Z,67.81
2022-12-18T13:34:26.158Z,67.73
2022-12-18T13:36:56.598Z,68.15
2022-12-18T13:39:32.784Z,68.63
2022-12-18T13:42:07.887Z,69.21
2022-12-18T13:44:46.326Z,68.43
2022-12-18T13:47:34.726Z,68.96
2022-12-18T13:50:11.019Z,69.33
2022-12-18T13:52:40.765Z,69.42
2022-12-18T13:55:19.114Z,69.49
2022-12-18T13:57:47.122Z,69.00
2022-12-18T14:00:25.795Z,69.18
2022-12-18T14:02:53.579Z,68.83
2022-12-18T14:05:37.196Z,68.45
2022-12-18T14:08:15.999Z,67.99
2022-12-18T14:10:48.657Z,66.79
2022-12-18T14:13:29.506Z,66.67
2022-12-18T14:15:57.444Z,66.60
2022-12-18T14:18:32.017Z,66.15
2022-12-18T14:21:34.346Z,65.88
2022-12-18T14:24:23.285Z,65.32
2022-12-18T14:26:51.740Z,65.34
2022-12-18T14:29:27.600Z,65.47
2022-12-18T14:32:16.515Z,65.20
2022-12-18T14:34:51.424Z,65.48
2022-12-18T14:37:25.475Z,65.82
2022-12-18T14:40:11.483Z,65.11
2022-12-18T14:42:39.959Z,65.32
2022-12-18T14:45:41.073Z,64.32
2022-12-18T14:48:42.640Z,64.29
2022-12-18T14:51:24.825Z,63.88
2022-12-18T14:54:01.594Z,63.42
2022-12-18T14:56:37.148Z,63.57
2022-12-18T14:59:07.046Z,63.60
2022-12-18T15:01:40.567Z,63.30
2022-12-18T15:04:30.493Z,63.63
2022-12-18T15:07:24.578Z,63.75
2022-12-18T15:10:13.241Z,62.45
2022-12-18T15:12:50.653Z,62.23
2022-12-18T15:15:48.161Z,62.42
2022-12-18T15:18:18.875Z,63.08
2022-12-18T15:21:00.706Z,62.11
2022-12-18T15:23:34.011Z,62.37
2022-12-18T15:26:11.477Z,61.14
2022-12-18T15:29:04.284Z,61.50
2022-12-18T15:31:32.765Z,61.84
2022-12-18T15:34:11.358Z,61.87
2022-12-18T15:37:03.235Z,61.60
2022-12-18T15:39:30.394Z,62.74
2022-12-18T15:42:15.906Z,63.44
2022-12-18T15:44:44.694Z,62.67
2022-12-18T15:47:14.011Z,63.21
2022-12-18T15:49:40.974Z,63.89
2022-12-18T15:52:14.498Z,64.01
2022-12-18T15:54:59.998Z,64.39
2022-12-18T15:57:29.385Z,64.67
2022-12-18T16:00:00.386Z,64.64
2022-12-18T16:02:29.025Z,64.35
2022-12-18T16:04:56.116Z,64.32
2022-12-18T16:07:26.056Z,63.96
2022-12-18T16:09:55.444Z,64.42
2022-12-18T16:12:25.381Z,64.94
2022-12-18T16:14:52.351Z,64.72
2022-12-18T16:17:29.730Z,65.15
2022-12-18T16:20:05.655Z,65.30
2022-12-18T16:22:33.205Z,65.63
2022-12-18T16:25:00.156Z,65.63
2022-12-18T16:27:27.314Z,65.81
2022-12-18T16:29:54.387Z,65.57
2022-12-18T16:32:23.620Z,65.76
2022-12-18T16:34:52.015Z,66.29
2022-12-18T16:37:19.141Z,66.13
2022-12-18T16:39:46.839Z,66.58
2022-12-18T16:42:17.902Z,66.73
2022-12-18T16:44:46.674Z,66.81
2022-12-18T16:47:15.701Z,66.71
2022-12-18T16:49:45.385Z,66.71
2022-12-18T16:52:26.822Z,66.86
2022-12-18T16:54:53.880Z,66.92
2022-12-18T16:57:23.541Z,66.60
2022-12-18T16:59:53.103Z,66.41
2022-12-18T17:02:25.937Z,66.89
2022-12-18T17:04:56.221Z,67.20
2022-12-18T17:07:24.103Z,67.17
2022-12-18T17:09:51.319Z,67.46
2022-12-18T17:12:18.494Z,67.17
2022-12-18T17:14:45.438Z,67.12
2022-12-18T17:17:21.382Z,67.36
2022-12-18T17:19:49.675Z,68.04
2022-12-18T17:22:16.620Z,67.08
2022-12-18T17:24:43.680Z,67.50
2022-12-18T17:27:12.189Z,66.51
2022-12-18T17:30:07.089Z,65.89
2022-12-18T17:33:10.987Z,65.92
2022-12-18T17:35:42.397Z,66.46
2022-12-18T17:38:09.494Z,66.49
2022-12-18T17:40:39.706Z,66.54
2022-12-18T17:43:11.585Z,66.23
2022-12-18T17:45:40.198Z,66.86
2022-12-18T17:48:09.251Z,66.61
2022-12-18T17:50:48.562Z,66.76
2022-12-18T17:53:15.535Z,67.27
2022-12-18T17:55:42.535Z,67.49
2022-12-18T17:58:09.830Z,67.69
2022-12-18T18:00:39.310Z,67.83
2022-12-18T18:03:06.792Z,67.60
2022-12-18T18:05:34.022Z,67.61
2022-12-18T18:08:01.075Z,68.06
2022-12-18T18:10:28.167Z,67.31
2022-12-18T18:13:13.599Z,67.30
2022-12-18T18:15:41.159Z,67.23
2022-12-18T18:18:08.597Z,67.16
2022-12-18T18:20:40.845Z,66.90
2022-12-18T18:23:09.343Z,65.74
2022-12-18T18:25:37.741Z,64.91
2022-12-18T18:28:05.093Z,64.99
2022-12-18T18:30:32.406Z,65.35
2022-12-18T18:33:00.914Z,65.19
2022-12-18T18:35:52.992Z,65.87
2022-12-18T18:38:16.189Z,66.27
2022-12-18T18:40:43.288Z,67.03
2022-12-18T18:43:12.375Z,66.69
2022-12-18T18:45:39.286Z,66.99
2022-12-18T18:48:07.526Z,66.64
2022-12-18T18:50:35.606Z,66.85
2022-12-18T18:53:03.166Z,67.00
2022-12-18T18:55:33.686Z,67.14
2022-12-18T18:58:01.975Z,67.19
2022-12-18T19:00:32.604Z,66.91
2022-12-18T19:03:00.871Z,67.27
2022-12-18T19:05:28.148Z,68.22
2022-12-18T19:07:56.408Z,68.55
2022-12-18T19:10:23.464Z,68.86
2022-12-18T19:13:24.927Z,69.15
2022-12-18T19:16:09.534Z,69.80
2022-12-18T19:18:38.638Z,70.00
2022-12-18T19:21:06.984Z,69.46
2022-12-18T19:23:34.742Z,70.01
2022-12-18T19:29:06.190Z,69.83
2022-12-18T19:31:36.366Z,69.92
2022-12-18T19:34:06.748Z,69.32
2022-12-18T19:36:37.270Z,69.38
2022-12-18T19:39:11.235Z,69.20
2022-12-18T19:41:39.926Z,69.57
2022-12-18T19:44:08.675Z,69.26
2022-12-18T19:46:36.243Z,69.48
2022-12-18T19:49:07.762Z,69.95
2022-12-18T19:51:36.218Z,69.75
2022-12-18T19:54:04.502Z,69.98
2022-12-18T19:56:33.637Z,70.01
2022-12-18T19:59:01.401Z,70.28
2022-12-18T20:01:29.679Z,70.90
2022-12-18T20:03:58.066Z,70.87
2022-12-18T20:06:33.183Z,70.98
2022-12-18T20:09:06.357Z,70.84
2022-12-18T20:11:41.200Z,70.68
2022-12-18T20:14:14.393Z,70.65
2022-12-18T20:16:43.415Z,70.61
2022-12-18T20:19:13.068Z,70.87
2022-12-18T20:21:41.644Z,70.99
2022-12-18T20:24:09.095Z,71.25
2022-12-18T20:26:37.306Z,71.34
2022-12-18T20:29:06.859Z,71.78
2022-12-18T20:31:33.944Z,71.35
2022-12-18T20:34:02.605Z,71.66
2022-12-18T20:36:32.853Z,71.48
2022-12-18T20:39:02.613Z,71.24
2022-12-18T20:41:36.052Z,71.04
2022-12-18T20:44:22.977Z,71.38
2022-12-18T20:46:56.855Z,71.71
2022-12-18T20:49:25.914Z,72.63
2022-12-18T20:51:54.642Z,73.01
2022-12-18T20:54:24.131Z,72.73
2022-12-18T20:56:50.898Z,71.99
2022-12-18T20:59:18.321Z,72.94
2022-12-18T21:01:48.277Z,73.73
2022-12-18T21:04:18.010Z,73.41
2022-12-18T21:06:50.943Z,73.60
2022-12-18T21:09:19.537Z,73.69
2022-12-18T21:12:05.060Z,74.27
2022-12-18T21:14:32.541Z,73.92
2022-12-18T21:17:02.903Z,73.87
2022-12-18T21:19:30.093Z,74.03
2022-12-18T21:21:58.016Z,73.72
2022-12-18T21:24:25.604Z,73.89
2022-12-18T21:26:52.633Z,74.21
2022-12-18T21:29:22.751Z,74.19
2022-12-18T21:31:50.879Z,74.26
2022-12-18T21:34:21.608Z,73.97
2022-12-18T21:36:49.780Z,74.23
2022-12-18T21:39:16.892Z,74.22
2022-12-18T21:42:03.078Z,74.46
2022-12-18T21:44:30.846Z,74.54
2022-12-18T21:47:12.299Z,74.50
2022-12-18T21:49:49.381Z,74.91
2022-12-18T21:52:17.257Z,74.79
2022-12-18T21:54:44.391Z,75.08
2022-12-18T21:57:13.985Z,75.29
2022-12-18T21:59:43.734Z,75.16
2022-12-18T22:02:20.047Z,74.87
2022-12-18T22:04:48.473Z,75.33
2022-12-18T22:07:16.861Z,75.55
2022-12-18T22:09:44.320Z,74.79
2022-12-18T22:12:33.698Z,74.73
2022-12-18T22:15:03.329Z,74.86
2022-12-18T22:17:30.938Z,74.24
2022-12-18T22:19:58.062Z,74.44
2022-12-18T22:22:25.532Z,74.40
2022-12-18T22:24:52.628Z,74.40
2022-12-18T22:27:19.718Z,74.85
2022-12-18T22:30:05.300Z,74.55
2022-12-18T22:32:35.264Z,74.64
2022-12-18T22:35:08.292Z,74.63
2022-12-18T22:37:41.332Z,74.68
2022-12-18T22:40:23.713Z,74.73
2022-12-18T22:42:53.223Z,74.85
2022-12-18T22:45:20.756Z,74.33
2022-12-18T22:47:47.775Z,74.72
2022-12-18T22:50:15.063Z,74.01
2022-12-18T22:52:42.423Z,73.93
2022-12-18T22:55:09.568Z,74.00
2022-12-18T22:57:36.722Z,74.65
2022-12-18T23:00:06.479Z,73.83
2022-12-18T23:02:33.532Z,74.26
2022-12-18T23:05:00.674Z,74.15
2022-12-18T23:07:27.766Z,74.26
2022-12-18T23:10:00.783Z,73.50
2022-12-18T23:12:29.859Z,73.15
2022-12-18T23:15:00.041Z,73.39
2022-12-18T23:17:27.078Z,72.72
2022-12-18T23:19:54.101Z,72.29
2022-12-18T23:22:21.251Z,72.55
2022-12-18T23:24:48.234Z,72.69
2022-12-18T23:27:15.402Z,72.82
2022-12-18T23:29:42.563Z,72.34
2022-12-18T23:32:12.358Z,72.67
2022-12-18T23:34:39.518Z,73.62
2022-12-18T23:37:06.605Z,74.23
2022-12-18T23:39:33.579Z,74.13
2022-12-18T23:42:00.935Z,73.78
2022-12-18T23:44:28.262Z,74.33
2022-12-18T23:46:56.270Z,74.58
2022-12-18T23:49:23.406Z,74.49
2022-12-18T23:51:50.620Z,74.69
2022-12-18T23:54:17.731Z,74.61
2022-12-18T23:57:00.771Z,73.83
2022-12-18T23:59:27.717Z,73.78
